createdAt,value
2019-05-05T00:00:44.536Z,10.70
2019-05-05T00:03:25.037Z,10.60
2019-05-05T00:05:57.449Z,10.50
2019-05-05T00:08:27.019Z,10.50
2019-05-05T00:11:15.287Z,10.50
2019-05-05T00:13:46.403Z,10.50
2019-05-05T00:16:35.051Z,10.60
2019-05-05T00:19:04.945Z,10.60
2019-05-05T00:21:34.852Z,10.70
2019-05-05T00:24:04.718Z,10.70
2019-05-05T00:26:34.933Z,10.80
2019-05-05T00:29:05.045Z,10.90
2019-05-05T00:31:35.086Z,11.00
2019-05-05T00:34:05.194Z,11.00
2019-05-05T00:36:35.355Z,11.00
2019-05-05T00:39:07.393Z,10.90
2019-05-05T00:41:37.204Z,10.80
2019-05-05T00:44:06.882Z,10.80
2019-05-05T00:46:55.809Z,10.80
2019-05-05T00:49:37.423Z,10.70
2019-05-05T00:52:01.616Z,10.70
2019-05-05T00:54:31.326Z,10.80
2019-05-05T00:57:01.037Z,10.70
2019-05-05T00:59:31.495Z,10.70
2019-05-05T01:02:15.123Z,10.80
2019-05-05T01:05:01.819Z,10.80
2019-05-05T01:07:31.417Z,10.70
2019-05-05T01:10:01.040Z,10.80
2019-05-05T01:12:30.852Z,10.70
2019-05-05T01:15:01.468Z,10.70
2019-05-05T01:17:31.200Z,10.80
2019-05-05T01:20:04.026Z,10.70
2019-05-05T01:22:34.086Z,10.70
2019-05-05T01:25:05.394Z,10.50
2019-05-05T01:27:35.192Z,10.40
2019-05-05T01:30:11.404Z,10.30
2019-05-05T01:32:46.240Z,10.20
2019-05-05T01:35:15.973Z,10.20
2019-05-05T01:37:50.270Z,10.20
2019-05-05T01:40:37.588Z,10.10
2019-05-05T01:43:07.493Z,10.00
2019-05-05T01:45:37.352Z,10.00
2019-05-05T01:48:07.048Z,10.00
2019-05-05T01:50:36.767Z,9.90
2019-05-05T01:53:06.474Z,9.90
2019-05-05T01:55:36.324Z,9.90
2019-05-05T01:58:06.349Z,9.90
2019-05-05T02:00:36.018Z,10.00
2019-05-05T02:03:05.708Z,10.00
2019-05-05T02:05:35.264Z,9.90
2019-05-05T02:08:05.222Z,10.00
2019-05-05T02:10:35.061Z,10.00
2019-05-05T02:13:04.875Z,10.00
2019-05-05T02:15:34.551Z,10.00
2019-05-05T02:18:04.649Z,10.00
2019-05-05T02:20:55.869Z,10.00
2019-05-05T02:23:25.488Z,10.00
2019-05-05T02:25:55.366Z,10.00
2019-05-05T02:28:26.884Z,9.90
2019-05-05T02:31:07.125Z,9.80
2019-05-05T02:33:36.729Z,9.80
2019-05-05T02:36:06.508Z,9.90
2019-05-05T02:38:36.291Z,9.90
2019-05-05T02:41:05.861Z,9.90
2019-05-05T02:43:37.304Z,9.90
2019-05-05T02:46:20.948Z,9.90
2019-05-05T02:48:55.136Z,9.90
2019-05-05T02:51:27.533Z,9.90
2019-05-05T02:53:59.294Z,9.80
2019-05-05T02:56:36.391Z,9.80
2019-05-05T02:59:09.056Z,9.70
2019-05-05T03:01:44.729Z,9.60
2019-05-05T03:04:14.728Z,9.60
2019-05-05T03:06:47.617Z,9.60
2019-05-05T03:09:18.733Z,9.60
2019-05-05T03:11:49.744Z,9.60
2019-05-05T03:14:23.554Z,9.50
2019-05-05T03:16:54.219Z,9.30
2019-05-05T03:19:25.133Z,9.10
2019-05-05T03:21:55.936Z,8.90
2019-05-05T03:24:25.641Z,8.70
2019-05-05T03:26:55.400Z,8.60
2019-05-05T03:29:25.433Z,8.60
2019-05-05T03:31:56.591Z,8.70
2019-05-05T03:34:27.120Z,8.60
2019-05-05T03:36:56.973Z,8.60
2019-05-05T03:39:28.311Z,8.60
2019-05-05T03:41:59.433Z,8.60
2019-05-05T03:44:34.346Z,8.60
2019-05-05T03:47:04.335Z,8.60
2019-05-05T03:49:34.391Z,8.50
2019-05-05T03:52:04.872Z,8.60
2019-05-05T03:54:35.150Z,8.60
2019-05-05T03:57:10.605Z,8.70
2019-05-05T03:59:44.081Z,8.70
2019-05-05T04:02:15.212Z,8.70
2019-05-05T04:04:48.979Z,8.60
2019-05-05T04:07:18.833Z,8.50
2019-05-05T04:09:48.560Z,8.50
2019-05-05T04:12:18.580Z,8.60
2019-05-05T04:14:48.136Z,8.60
2019-05-05T04:17:33.552Z,8.60
2019-05-05T04:20:19.626Z,8.60
2019-05-05T04:22:50.426Z,8.70
2019-05-05T04:25:20.121Z,8.80
2019-05-05T04:27:49.683Z,8.90
2019-05-05T04:30:19.236Z,9.00
2019-05-05T04:32:48.857Z,9.60
2019-05-05T04:35:18.362Z,9.90
2019-05-05T04:37:47.894Z,10.10
2019-05-05T04:40:17.531Z,10.40
2019-05-05T04:42:47.288Z,10.40
2019-05-05T04:45:17.289Z,10.50
2019-05-05T04:47:51.501Z,10.60
2019-05-05T04:50:38.195Z,10.50
2019-05-05T04:53:13.556Z,10.50
2019-05-05T04:55:44.251Z,10.70
2019-05-05T04:58:13.821Z,10.60
2019-05-05T05:00:44.112Z,10.60
2019-05-05T05:03:34.469Z,10.80
2019-05-05T05:06:05.405Z,10.80
2019-05-05T05:08:35.044Z,10.90
2019-05-05T05:11:04.792Z,11.10
2019-05-05T05:13:34.862Z,11.20
2019-05-05T05:16:04.824Z,11.20
2019-05-05T05:18:34.574Z,11.30
2019-05-05T05:21:04.273Z,11.20
2019-05-05T05:23:34.201Z,11.20
2019-05-05T05:26:05.054Z,11.10
2019-05-05T05:28:34.985Z,11.20
2019-05-05T05:31:04.629Z,11.10
2019-05-05T05:33:34.561Z,11.00
2019-05-05T05:36:04.296Z,10.80
2019-05-05T05:38:34.625Z,10.70
2019-05-05T05:41:08.956Z,10.40
2019-05-05T05:43:43.972Z,9.80
2019-05-05T05:46:15.342Z,9.50
2019-05-05T05:48:46.528Z,9.30
2019-05-05T05:51:19.380Z,9.10
2019-05-05T05:53:48.914Z,9.10
2019-05-05T05:56:18.473Z,9.00
2019-05-05T05:58:47.952Z,9.00
2019-05-05T06:01:17.598Z,9.00
2019-05-05T06:03:47.639Z,8.90
2019-05-05T06:06:17.292Z,8.90
2019-05-05T06:08:46.768Z,8.80
2019-05-05T06:11:16.244Z,8.90
2019-05-05T06:13:47.598Z,9.10
2019-05-05T06:16:17.084Z,9.20
2019-05-05T06:18:46.797Z,9.20
2019-05-05T06:21:16.288Z,9.10
2019-05-05T06:23:45.982Z,9.10
2019-05-05T06:26:15.629Z,8.90
2019-05-05T06:28:45.439Z,8.70
2019-05-05T06:31:15.247Z,8.50
2019-05-05T06:33:44.860Z,8.40
2019-05-05T06:36:14.420Z,8.40
2019-05-05T06:38:44.107Z,8.50
2019-05-05T06:41:17.948Z,8.70
2019-05-05T06:43:51.759Z,8.80
2019-05-05T06:46:34.961Z,8.90
2019-05-05T06:49:04.739Z,8.90
2019-05-05T06:51:34.367Z,9.00
2019-05-05T06:54:04.618Z,9.10
2019-05-05T06:56:34.368Z,9.20
2019-05-05T06:59:06.640Z,9.20
2019-05-05T07:01:36.148Z,9.40
2019-05-05T07:04:05.760Z,9.80
2019-05-05T07:06:35.459Z,9.80
2019-05-05T07:09:06.381Z,9.70
2019-05-05T07:11:36.315Z,9.80
2019-05-05T07:14:05.862Z,9.90
2019-05-05T07:16:35.494Z,10.00
2019-05-05T07:19:05.349Z,10.00
2019-05-05T07:21:35.053Z,10.30
2019-05-05T07:24:04.979Z,10.50
2019-05-05T07:26:34.612Z,10.20
2019-05-05T07:29:04.666Z,10.30
2019-05-05T07:31:34.685Z,10.60
2019-05-05T07:34:05.652Z,10.90
2019-05-05T07:36:37.003Z,10.80
2019-05-05T07:39:07.814Z,10.80
2019-05-05T07:41:40.422Z,10.60
2019-05-05T07:44:22.305Z,10.70
2019-05-05T07:46:40.280Z,11.10
2019-05-05T07:49:09.817Z,11.00
2019-05-05T07:51:39.441Z,10.60
2019-05-05T07:54:09.210Z,10.60
2019-05-05T07:56:39.813Z,10.90
2019-05-05T07:59:09.369Z,11.20
2019-05-05T08:01:39.599Z,11.70
2019-05-05T08:04:10.068Z,11.70
2019-05-05T08:06:39.691Z,12.00
2019-05-05T08:09:09.333Z,11.80
2019-05-05T08:11:39.098Z,11.80
2019-05-05T08:14:09.825Z,12.10
2019-05-05T08:16:41.174Z,12.60
2019-05-05T08:19:14.864Z,12.80
2019-05-05T08:21:44.585Z,12.90
2019-05-05T08:24:15.786Z,13.40
2019-05-05T08:26:46.965Z,13.70
2019-05-05T08:29:30.312Z,13.40
2019-05-05T08:32:17.640Z,15.30
2019-05-05T08:34:57.494Z,15.00
2019-05-05T08:37:18.420Z,14.30
2019-05-05T08:39:47.971Z,14.40
2019-05-05T08:42:17.743Z,13.80
2019-05-05T08:44:47.343Z,13.20
2019-05-05T08:47:16.944Z,13.20
2019-05-05T08:49:46.665Z,13.00
2019-05-05T08:52:16.239Z,13.10
2019-05-05T08:54:45.949Z,13.40
2019-05-05T08:57:15.580Z,13.20
2019-05-05T08:59:45.269Z,13.70
2019-05-05T09:02:15.409Z,14.80
2019-05-05T09:04:45.176Z,13.80
2019-05-05T09:07:14.736Z,13.90
2019-05-05T09:09:44.550Z,14.20
2019-05-05T09:12:14.191Z,14.30
2019-05-05T09:14:44.892Z,14.00
2019-05-05T09:17:14.728Z,14.30
2019-05-05T09:19:45.589Z,14.20
2019-05-05T09:22:15.153Z,14.30
2019-05-05T09:24:46.407Z,14.00
2019-05-05T09:27:20.590Z,14.50
2019-05-05T09:29:50.186Z,15.00
2019-05-05T09:32:19.769Z,14.80
2019-05-05T09:34:49.502Z,14.70
2019-05-05T09:37:19.242Z,14.50
2019-05-05T09:39:48.901Z,14.50
2019-05-05T09:42:18.402Z,14.20
2019-05-05T09:44:48.117Z,14.70
2019-05-05T09:47:17.648Z,15.20
2019-05-05T09:49:47.227Z,15.20
2019-05-05T09:52:16.866Z,14.80
2019-05-05T09:54:46.506Z,14.60
2019-05-05T09:57:16.079Z,14.80
2019-05-05T09:59:45.685Z,15.30
2019-05-05T10:02:15.394Z,14.90
2019-05-05T10:04:45.145Z,15.20
2019-05-05T10:07:14.814Z,14.70
2019-05-05T10:09:44.374Z,14.80
2019-05-05T10:12:14.014Z,14.80
2019-05-05T10:14:44.962Z,14.70
2019-05-05T10:17:15.138Z,15.10
2019-05-05T10:19:44.629Z,15.40
2019-05-05T10:22:14.878Z,15.90
2019-05-05T10:24:46.282Z,16.50
2019-05-05T10:27:15.850Z,15.60
2019-05-05T10:29:45.347Z,15.00
2019-05-05T10:32:14.993Z,14.40
2019-05-05T10:34:46.372Z,14.50
2019-05-05T10:37:15.946Z,14.40
2019-05-05T10:39:47.220Z,14.40
2019-05-05T10:42:16.791Z,14.80
2019-05-05T10:44:46.489Z,15.00
2019-05-05T10:47:16.268Z,15.20
2019-05-05T10:49:48.515Z,15.30
2019-05-05T10:52:18.163Z,15.10
2019-05-05T10:54:48.734Z,15.40
2019-05-05T10:57:18.608Z,15.30
2019-05-05T10:59:49.353Z,14.70
2019-05-05T11:02:18.995Z,15.30
2019-05-05T11:04:49.266Z,14.90
2019-05-05T11:07:19.027Z,14.60
2019-05-05T11:09:48.841Z,15.10
2019-05-05T11:12:18.563Z,15.70
2019-05-05T11:14:48.293Z,15.80
2019-05-05T11:17:18.001Z,15.90
2019-05-05T11:19:50.181Z,16.00
2019-05-05T11:22:18.970Z,15.60
2019-05-05T11:24:58.192Z,15.40
2019-05-05T11:27:24.145Z,15.00
2019-05-05T11:30:14.315Z,14.70
2019-05-05T11:33:04.076Z,14.70
2019-05-05T11:35:54.085Z,14.80
2019-05-05T11:38:25.122Z,14.70
2019-05-05T11:40:56.841Z,14.20
2019-05-05T11:43:26.506Z,14.20
2019-05-05T11:45:56.160Z,13.80
2019-05-05T11:48:27.131Z,13.70
2019-05-05T11:50:56.695Z,13.70
2019-05-05T11:53:26.339Z,13.50
2019-05-05T11:55:55.969Z,13.40
2019-05-05T11:58:25.554Z,13.30
2019-05-05T12:00:55.264Z,13.30
2019-05-05T12:03:24.979Z,13.40
2019-05-05T12:05:54.603Z,13.30
2019-05-05T12:08:24.302Z,13.40
2019-05-05T12:10:58.508Z,13.20
2019-05-05T12:13:31.060Z,13.30
2019-05-05T12:16:05.371Z,13.30
2019-05-05T12:18:35.099Z,13.10
2019-05-05T12:21:05.328Z,13.00
2019-05-05T12:23:35.707Z,13.00
2019-05-05T12:26:15.617Z,12.80
2019-05-05T12:28:49.827Z,12.90
2019-05-05T12:31:21.150Z,13.10
2019-05-05T12:33:50.962Z,13.10
2019-05-05T12:36:20.899Z,13.10
2019-05-05T12:38:50.587Z,13.30
2019-05-05T12:41:21.231Z,13.30
2019-05-05T12:43:51.034Z,13.10
2019-05-05T12:46:28.254Z,13.20
2019-05-05T12:49:00.671Z,13.00
2019-05-05T12:51:30.406Z,13.00
2019-05-05T12:54:00.237Z,12.90
2019-05-05T12:56:30.062Z,12.80
2019-05-05T12:59:03.709Z,12.80
2019-05-05T13:01:35.218Z,12.80
2019-05-05T13:04:06.850Z,12.80
2019-05-05T13:06:36.556Z,12.80
2019-05-05T13:09:07.859Z,12.90
2019-05-05T13:11:37.816Z,12.80
2019-05-05T13:14:07.466Z,12.90
2019-05-05T13:16:37.234Z,12.90
2019-05-05T13:19:08.689Z,13.10
2019-05-05T13:21:40.035Z,13.30
2019-05-05T13:24:13.617Z,13.40
2019-05-05T13:26:44.372Z,13.20
2019-05-05T13:29:14.071Z,13.00
2019-05-05T13:31:44.227Z,13.00
2019-05-05T13:34:13.918Z,12.90
2019-05-05T13:36:45.091Z,12.80
2019-05-05T13:39:15.037Z,12.70
2019-05-05T13:41:45.033Z,12.60
2019-05-05T13:44:16.438Z,12.70
2019-05-05T13:46:46.711Z,12.80
2019-05-05T13:49:32.984Z,12.80
2019-05-05T13:52:04.666Z,12.90
2019-05-05T13:54:36.015Z,12.80
2019-05-05T13:57:07.962Z,12.70
2019-05-05T13:59:37.641Z,12.60
2019-05-05T14:02:07.334Z,12.60
2019-05-05T14:04:37.074Z,12.60
2019-05-05T14:07:07.906Z,12.50
2019-05-05T14:09:37.502Z,12.50
2019-05-05T14:12:09.807Z,12.40
2019-05-05T14:14:40.979Z,12.30
2019-05-05T14:17:10.599Z,12.20
2019-05-05T14:19:40.394Z,12.10
2019-05-05T14:22:10.045Z,11.90
2019-05-05T14:24:41.390Z,11.70
2019-05-05T14:27:11.213Z,11.50
2019-05-05T14:29:48.370Z,11.30
2019-05-05T14:32:19.782Z,11.20
2019-05-05T14:34:54.658Z,11.20
2019-05-05T14:37:37.117Z,11.10
2019-05-05T14:40:07.594Z,11.00
2019-05-05T14:42:37.326Z,10.90
2019-05-05T14:45:07.291Z,10.70
2019-05-05T14:47:37.566Z,10.50
2019-05-05T14:50:08.914Z,10.40
2019-05-05T14:52:38.832Z,10.30
2019-05-05T14:55:08.778Z,10.30
2019-05-05T14:57:38.487Z,10.00
2019-05-05T15:00:10.893Z,9.90
2019-05-05T15:02:40.674Z,10.00
2019-05-05T15:05:14.123Z,10.00
2019-05-05T15:07:44.978Z,10.00
2019-05-05T15:10:16.442Z,10.00
2019-05-05T15:12:50.519Z,10.10
2019-05-05T15:15:20.090Z,10.10
2019-05-05T15:17:49.692Z,10.10
2019-05-05T15:20:21.830Z,9.90
2019-05-05T15:22:51.531Z,9.90
2019-05-05T15:25:23.511Z,10.00
2019-05-05T15:27:54.216Z,10.00
2019-05-05T15:30:26.968Z,10.00
2019-05-05T15:32:55.398Z,10.00
2019-05-05T15:35:25.105Z,10.10
2019-05-05T15:37:54.730Z,10.10
2019-05-05T15:40:24.763Z,10.10
2019-05-05T15:42:54.599Z,10.10
2019-05-05T15:45:24.134Z,9.90
2019-05-05T15:47:54.134Z,9.80
2019-05-05T15:50:23.907Z,9.80
2019-05-05T15:52:54.464Z,9.80
2019-05-05T15:55:24.599Z,9.90
2019-05-05T15:57:54.368Z,10.10
2019-05-05T16:00:25.625Z,10.20
2019-05-05T16:02:55.561Z,10.20
2019-05-05T16:05:26.486Z,10.40
2019-05-05T16:07:56.134Z,10.40
2019-05-05T16:10:25.699Z,10.30
2019-05-05T16:12:56.597Z,10.30
2019-05-05T16:15:34.957Z,10.40
2019-05-05T16:18:06.103Z,10.40
2019-05-05T16:20:40.279Z,10.40
2019-05-05T16:23:14.434Z,10.40
2019-05-05T16:25:46.354Z,10.40
2019-05-05T16:28:15.540Z,10.30
2019-05-05T16:30:46.449Z,10.40
2019-05-05T16:33:17.655Z,10.30
2019-05-05T16:35:47.599Z,10.30
2019-05-05T16:38:18.611Z,10.30
2019-05-05T16:40:48.188Z,10.30
2019-05-05T16:43:18.563Z,10.20
2019-05-05T16:45:48.322Z,10.30
2019-05-05T16:48:17.967Z,10.40
2019-05-05T16:50:48.871Z,10.30
2019-05-05T16:53:36.156Z,10.30
2019-05-05T16:56:10.093Z,10.10
2019-05-05T16:58:40.735Z,10.20
2019-05-05T17:01:14.207Z,10.20
2019-05-05T17:03:45.667Z,10.20
2019-05-05T17:06:14.874Z,10.20
2019-05-05T17:08:44.654Z,10.10
2019-05-05T17:11:15.020Z,10.10
2019-05-05T17:13:47.087Z,10.00
2019-05-05T17:16:19.831Z,9.90
2019-05-05T17:18:54.086Z,9.90
2019-05-05T17:21:28.772Z,9.90
2019-05-05T17:23:58.274Z,9.90
2019-05-05T17:26:27.902Z,9.90
2019-05-05T17:28:58.456Z,9.80
2019-05-05T17:31:28.108Z,9.70
2019-05-05T17:33:57.756Z,9.70
2019-05-05T17:36:27.386Z,9.60
2019-05-05T17:38:57.090Z,9.60
2019-05-05T17:41:44.634Z,9.60
2019-05-05T17:44:18.972Z,9.60
2019-05-05T17:47:08.345Z,9.60
2019-05-05T17:49:40.068Z,9.60
2019-05-05T17:52:14.359Z,9.50
2019-05-05T17:54:47.510Z,9.50
2019-05-05T17:57:19.955Z,9.50
2019-05-05T17:59:49.593Z,9.50
2019-05-05T18:02:19.199Z,9.30
2019-05-05T18:04:48.967Z,9.30
2019-05-05T18:07:21.270Z,9.30
2019-05-05T18:09:56.940Z,9.20
2019-05-05T18:12:28.043Z,9.20
2019-05-05T18:14:59.323Z,9.20
2019-05-05T18:17:28.965Z,9.20
2019-05-05T18:19:58.542Z,9.30
2019-05-05T18:22:30.378Z,9.30
2019-05-05T18:25:00.078Z,9.30
2019-05-05T18:27:29.820Z,9.20
2019-05-05T18:29:59.396Z,9.10
2019-05-05T18:32:31.756Z,9.10
2019-05-05T18:35:06.401Z,9.10
2019-05-05T18:37:35.338Z,9.20
2019-05-05T18:40:06.733Z,9.10
2019-05-05T18:42:37.869Z,9.00
2019-05-05T18:45:10.142Z,9.00
2019-05-05T18:47:39.864Z,9.00
2019-05-05T18:50:09.963Z,9.00
2019-05-05T18:52:39.692Z,9.00
2019-05-05T18:55:10.835Z,9.00
2019-05-05T18:57:40.339Z,9.00
2019-05-05T19:00:13.819Z,8.90
2019-05-05T19:02:44.878Z,8.90
2019-05-05T19:05:28.211Z,8.90
2019-05-05T19:08:08.073Z,8.90
2019-05-05T19:10:37.768Z,8.80
2019-05-05T19:13:07.529Z,8.80
2019-05-05T19:15:37.290Z,8.80
2019-05-05T19:18:08.759Z,8.80
2019-05-05T19:20:44.440Z,8.80
2019-05-05T19:23:15.569Z,8.80
2019-05-05T19:25:48.176Z,8.80
2019-05-05T19:28:17.930Z,8.80
2019-05-05T19:30:47.673Z,8.80
2019-05-05T19:33:18.444Z,8.90
2019-05-05T19:35:48.154Z,8.90
2019-05-05T19:38:17.895Z,8.90
2019-05-05T19:40:56.011Z,8.90
2019-05-05T19:43:25.870Z,8.80
2019-05-05T19:45:57.299Z,8.70
2019-05-05T19:48:26.804Z,8.80
2019-05-05T19:51:00.610Z,8.80
2019-05-05T19:53:35.207Z,8.90
2019-05-05T19:56:04.217Z,8.80
2019-05-05T19:58:34.014Z,8.80
2019-05-05T20:01:05.376Z,8.80
2019-05-05T20:03:35.517Z,8.90
2019-05-05T20:06:05.599Z,8.90
2019-05-05T20:08:41.022Z,8.90
2019-05-05T20:11:07.066Z,8.90
2019-05-05T20:13:36.677Z,8.90
2019-05-05T20:16:07.952Z,8.90
2019-05-05T20:18:37.998Z,8.90
2019-05-05T20:21:07.667Z,8.90
2019-05-05T20:23:37.221Z,8.90
2019-05-05T20:26:07.746Z,8.90
2019-05-05T20:28:38.254Z,8.90
2019-05-05T20:31:07.878Z,8.90
2019-05-05T20:33:39.651Z,8.90
2019-05-05T20:36:10.857Z,8.80
2019-05-05T20:38:51.116Z,8.80
2019-05-05T20:41:24.694Z,8.80
2019-05-05T20:43:54.908Z,8.80
2019-05-05T20:46:25.934Z,8.80
2019-05-05T20:48:55.555Z,8.80
2019-05-05T20:51:25.094Z,8.80
2019-05-05T20:53:54.553Z,8.80
2019-05-05T20:56:25.916Z,8.80
2019-05-05T20:58:55.626Z,8.80
2019-05-05T21:01:25.239Z,8.80
2019-05-05T21:03:55.354Z,8.80
2019-05-05T21:06:25.051Z,8.80
2019-05-05T21:08:56.650Z,8.70
2019-05-05T21:11:26.302Z,8.70
2019-05-05T21:13:56.038Z,8.70
2019-05-05T21:16:25.767Z,8.70
2019-05-05T21:18:55.443Z,8.70
2019-05-05T21:21:26.708Z,8.70
2019-05-05T21:23:58.155Z,8.70
2019-05-05T21:26:29.355Z,8.70
2019-05-05T21:28:59.007Z,8.70
2019-05-05T21:31:28.515Z,8.70
2019-05-05T21:33:58.258Z,8.70
2019-05-05T21:36:27.811Z,8.70
2019-05-05T21:38:57.466Z,8.70
2019-05-05T21:41:27.182Z,8.60
2019-05-05T21:43:56.713Z,8.60
2019-05-05T21:46:26.270Z,8.60
2019-05-05T21:48:55.894Z,8.60
2019-05-05T21:51:43.194Z,8.60
2019-05-05T21:54:30.518Z,8.50
2019-05-05T21:57:07.806Z,8.60
2019-05-05T21:59:37.416Z,8.60
2019-05-05T22:02:07.172Z,8.60
2019-05-05T22:04:37.026Z,8.60
2019-05-05T22:07:06.722Z,8.60
2019-05-05T22:09:36.495Z,8.60
2019-05-05T22:12:06.206Z,8.60
2019-05-05T22:14:35.790Z,8.60
2019-05-05T22:17:05.491Z,8.60
2019-05-05T22:19:54.193Z,8.50
2019-05-05T22:22:25.660Z,8.50
2019-05-05T22:24:55.209Z,8.40
2019-05-05T22:27:24.707Z,8.50
2019-05-05T22:30:09.094Z,8.50
2019-05-05T22:32:25.377Z,8.50
2019-05-05T22:34:54.966Z,8.40
2019-05-05T22:37:24.526Z,8.40
2019-05-05T22:39:54.334Z,8.40
2019-05-05T22:42:24.625Z,8.40
2019-05-05T22:44:54.523Z,8.40
2019-05-05T22:47:24.098Z,8.40
2019-05-05T22:49:54.035Z,8.40
2019-05-05T22:52:25.499Z,8.40
2019-05-05T22:54:54.936Z,8.40
2019-05-05T22:57:24.798Z,8.50
2019-05-05T22:59:54.405Z,8.40
2019-05-05T23:02:25.613Z,8.40
2019-05-05T23:04:56.952Z,8.40
2019-05-05T23:07:28.267Z,8.30
2019-05-05T23:09:57.964Z,8.30
2019-05-05T23:12:27.531Z,8.30
2019-05-05T23:14:57.123Z,8.30
2019-05-05T23:17:28.544Z,8.30
2019-05-05T23:20:04.633Z,8.30
2019-05-05T23:22:35.439Z,8.40
2019-05-05T23:25:26.039Z,8.30
2019-05-05T23:27:55.672Z,8.30
2019-05-05T23:30:38.648Z,8.30
2019-05-05T23:32:56.703Z,8.30
2019-05-05T23:35:26.322Z,8.30
2019-05-05T23:37:55.822Z,8.30
2019-05-05T23:40:27.161Z,8.30
2019-05-05T23:42:56.799Z,8.30
2019-05-05T23:45:26.425Z,8.30
2019-05-05T23:47:56.046Z,8.30
2019-05-05T23:50:25.701Z,8.30
2019-05-05T23:52:55.401Z,8.30
2019-05-05T23:55:25.038Z,8.30
2019-05-05T23:57:55.071Z,8.30
